createdAt,value
2023-04-19T00:01:50.726Z,51.68
2023-04-19T00:03:52.531Z,51.43
2023-04-19T00:05:54.391Z,51.77
2023-04-19T00:07:55.993Z,51.68
2023-04-19T00:09:57.560Z,51.66
2023-04-19T00:12:00.768Z,51.43
2023-04-19T00:14:02.446Z,51.39
2023-04-19T00:16:06.573Z,51.50
2023-04-19T00:18:08.204Z,51.63
2023-04-19T00:20:10.944Z,51.29
2023-04-19T00:22:12.450Z,51.42
2023-04-19T00:24:14.234Z,51.12
2023-04-19T00:26:15.971Z,51.69
2023-04-19T00:28:17.544Z,51.14
2023-04-19T00:30:19.504Z,51.10
2023-04-19T00:32:22.675Z,51.44
2023-04-19T00:34:24.405Z,51.08
2023-04-19T00:36:25.979Z,51.22
2023-04-19T00:38:27.560Z,50.79
2023-04-19T00:40:29.247Z,50.95
2023-04-19T00:42:30.927Z,51.23
2023-04-19T00:44:32.579Z,51.93
2023-04-19T00:46:34.590Z,51.99
2023-04-19T00:48:37.696Z,52.05
2023-04-19T00:50:39.497Z,52.07
2023-04-19T00:52:41.524Z,51.91
2023-04-19T00:54:45.158Z,52.14
2023-04-19T00:56:46.953Z,51.94
2023-04-19T00:58:48.947Z,51.93
2023-04-19T01:00:50.467Z,51.42
2023-04-19T01:02:52.112Z,51.55
2023-04-19T01:04:55.188Z,51.73
2023-04-19T01:06:56.766Z,51.55
2023-04-19T01:08:58.334Z,51.72
2023-04-19T01:10:59.862Z,51.74
2023-04-19T01:13:01.400Z,51.81
2023-04-19T01:15:03.221Z,51.76
2023-04-19T01:17:04.942Z,52.11
2023-04-19T01:19:06.580Z,52.00
2023-04-19T01:21:09.508Z,51.79
2023-04-19T01:23:12.337Z,51.85
2023-04-19T01:25:13.923Z,51.69
2023-04-19T01:27:15.635Z,51.56
2023-04-19T01:29:17.149Z,51.46
2023-04-19T01:31:18.700Z,51.82
2023-04-19T01:33:20.435Z,51.73
2023-04-19T01:35:22.003Z,52.19
2023-04-19T01:37:23.582Z,51.93
2023-04-19T01:39:26.955Z,51.92
2023-04-19T01:41:28.443Z,51.51
2023-04-19T01:43:30.081Z,51.58
2023-04-19T01:45:31.721Z,51.55
2023-04-19T01:47:33.248Z,51.46
2023-04-19T01:49:34.884Z,51.40
2023-04-19T01:51:37.769Z,51.66
2023-04-19T01:53:39.282Z,51.59
2023-04-19T01:55:42.571Z,51.40
2023-04-19T01:57:44.211Z,51.52
2023-04-19T01:59:45.899Z,51.55
2023-04-19T02:01:47.628Z,51.69
2023-04-19T02:03:49.268Z,51.71
2023-04-19T02:05:50.998Z,51.68
2023-04-19T02:07:52.547Z,51.75
2023-04-19T02:09:54.085Z,51.91
2023-04-19T02:11:56.986Z,52.00
2023-04-19T02:13:58.539Z,52.06
2023-04-19T02:16:00.296Z,52.20
2023-04-19T02:18:01.896Z,52.07
2023-04-19T02:20:04.241Z,51.98
2023-04-19T02:22:05.755Z,52.25
2023-04-19T02:24:09.072Z,51.97
2023-04-19T02:26:11.036Z,52.29
2023-04-19T02:28:14.069Z,52.30
2023-04-19T02:30:15.883Z,52.18
2023-04-19T02:32:17.453Z,52.12
2023-04-19T02:34:19.005Z,51.91
2023-04-19T02:36:20.603Z,52.07
2023-04-19T02:38:22.214Z,52.13
2023-04-19T02:40:24.200Z,52.03
2023-04-19T02:42:25.832Z,51.92
2023-04-19T02:44:28.847Z,51.97
2023-04-19T02:46:30.479Z,52.16
2023-04-19T02:48:32.170Z,52.30
2023-04-19T02:50:36.790Z,51.92
2023-04-19T02:52:38.443Z,51.94
2023-04-19T02:54:40.052Z,52.38
2023-04-19T02:56:41.636Z,52.18
2023-04-19T02:58:43.164Z,52.46
2023-04-19T03:00:46.092Z,52.28
2023-04-19T03:02:47.722Z,52.44
2023-04-19T03:04:49.265Z,52.65
2023-04-19T03:06:52.085Z,52.61
2023-04-19T03:08:53.651Z,52.73
2023-04-19T03:10:55.294Z,52.09
2023-04-19T03:12:56.870Z,52.14
2023-04-19T03:14:58.517Z,51.85
2023-04-19T03:17:01.622Z,51.74
2023-04-19T03:19:03.211Z,51.47
2023-04-19T03:21:04.925Z,52.06
2023-04-19T03:23:06.522Z,51.68
2023-04-19T03:25:09.060Z,51.65
2023-04-19T03:27:10.608Z,51.59
2023-04-19T03:29:13.342Z,51.65
2023-04-19T03:31:15.155Z,51.24
2023-04-19T03:33:18.067Z,51.80
2023-04-19T03:35:19.576Z,51.01
2023-04-19T03:37:21.132Z,51.61
2023-04-19T03:39:22.679Z,52.17
2023-04-19T03:41:25.605Z,52.63
2023-04-19T03:43:27.152Z,52.71
2023-04-19T03:45:30.019Z,52.79
2023-04-19T03:47:31.574Z,51.87
2023-04-19T03:49:34.431Z,52.76
2023-04-19T03:51:36.041Z,52.80
2023-04-19T03:53:37.572Z,52.15
2023-04-19T03:55:39.115Z,51.95
2023-04-19T03:57:40.746Z,51.67
2023-04-19T03:59:42.217Z,51.55
2023-04-19T04:01:43.776Z,51.51
2023-04-19T04:03:45.560Z,51.85
2023-04-19T04:05:48.792Z,52.41
2023-04-19T04:07:50.292Z,51.57
2023-04-19T04:09:51.835Z,51.88
2023-04-19T04:11:53.376Z,52.12
2023-04-19T04:13:55.951Z,51.56
2023-04-19T04:15:57.620Z,51.81
2023-04-19T04:18:00.449Z,51.96
2023-04-19T04:20:02.164Z,52.20
2023-04-19T04:22:05.121Z,52.11
2023-04-19T04:24:07.309Z,51.92
2023-04-19T04:26:08.858Z,51.46
2023-04-19T04:28:10.407Z,51.77
2023-04-19T04:30:12.442Z,51.84
2023-04-19T04:32:13.992Z,52.37
2023-04-19T04:34:15.721Z,52.46
2023-04-19T04:36:17.430Z,52.50
2023-04-19T04:38:24.544Z,52.72
2023-04-19T04:40:26.743Z,52.78
2023-04-19T04:42:28.264Z,53.11
2023-04-19T04:44:29.800Z,52.98
2023-04-19T04:46:31.356Z,52.97
2023-04-19T04:48:32.845Z,53.41
2023-04-19T04:50:34.401Z,52.94
2023-04-19T04:52:35.955Z,53.06
2023-04-19T04:54:38.831Z,52.89
2023-04-19T04:56:40.413Z,53.39
2023-04-19T04:58:42.084Z,53.43
2023-04-19T05:00:43.761Z,53.76
2023-04-19T05:02:45.516Z,54.17
2023-04-19T05:04:47.105Z,54.57
2023-04-19T05:06:48.778Z,54.39
2023-04-19T05:08:50.384Z,54.47
2023-04-19T05:10:53.349Z,54.65
2023-04-19T05:12:54.973Z,54.46
2023-04-19T05:14:56.657Z,55.34
2023-04-19T05:16:58.202Z,54.54
2023-04-19T05:18:59.799Z,54.55
2023-04-19T05:21:01.422Z,53.89
2023-04-19T05:23:02.962Z,53.79
2023-04-19T05:25:05.767Z,53.69
2023-04-19T05:27:08.733Z,53.69
2023-04-19T05:29:10.338Z,53.46
2023-04-19T05:31:12.243Z,54.15
2023-04-19T05:33:13.801Z,53.47
2023-04-19T05:35:15.590Z,54.13
2023-04-19T05:37:17.159Z,53.53
2023-04-19T05:39:18.783Z,53.64
2023-04-19T05:41:20.547Z,53.76
2023-04-19T05:43:23.492Z,53.41
2023-04-19T05:45:25.781Z,53.92
2023-04-19T05:47:27.414Z,54.19
2023-04-19T05:49:29.011Z,54.05
2023-04-19T05:51:30.539Z,54.19
2023-04-19T05:53:32.154Z,54.22
2023-04-19T05:55:33.696Z,54.29
2023-04-19T05:57:35.304Z,54.16
2023-04-19T05:59:38.333Z,54.30
2023-04-19T06:01:39.901Z,54.35
2023-04-19T06:03:41.797Z,53.88
2023-04-19T06:05:43.697Z,53.84
2023-04-19T06:07:54.472Z,53.91
2023-04-19T06:09:57.083Z,54.67
2023-04-19T06:11:58.944Z,54.21
2023-04-19T06:14:00.516Z,55.53
2023-04-19T06:16:04.243Z,54.77
2023-04-19T06:18:06.040Z,53.77
2023-04-19T06:20:08.884Z,54.05
2023-04-19T06:22:10.417Z,53.54
2023-04-19T06:24:12.199Z,54.66
2023-04-19T06:26:13.886Z,53.53
2023-04-19T06:28:15.556Z,54.09
2023-04-19T06:30:17.966Z,53.87
2023-04-19T06:32:20.914Z,53.80
2023-04-19T06:34:22.956Z,53.75
2023-04-19T06:36:24.486Z,53.24
2023-04-19T06:38:26.046Z,54.39
2023-04-19T06:40:28.143Z,53.38
2023-04-19T06:42:29.746Z,53.90
2023-04-19T06:44:31.355Z,53.40
2023-04-19T06:46:35.752Z,52.39
2023-04-19T06:48:38.653Z,52.96
2023-04-19T06:50:40.579Z,52.09
2023-04-19T06:52:42.393Z,52.69
2023-04-19T06:54:47.658Z,52.54
2023-04-19T06:56:49.981Z,52.06
2023-04-19T06:58:51.446Z,51.58
2023-04-19T07:00:53.111Z,52.21
2023-04-19T07:02:54.950Z,51.64
2023-04-19T07:04:57.972Z,52.47
2023-04-19T07:06:59.531Z,52.63
2023-04-19T07:09:01.140Z,52.50
2023-04-19T07:11:02.674Z,52.43
2023-04-19T07:13:04.452Z,52.84
2023-04-19T07:15:06.834Z,53.58
2023-04-19T07:17:08.523Z,55.11
2023-04-19T07:19:10.119Z,56.33
2023-04-19T07:21:12.951Z,51.76
2023-04-19T07:23:15.411Z,52.67
2023-04-19T07:25:17.098Z,51.05
2023-04-19T07:27:18.590Z,51.38
2023-04-19T07:29:20.221Z,51.63
2023-04-19T07:31:21.936Z,52.22
2023-04-19T07:33:25.955Z,52.68
2023-04-19T07:35:29.497Z,52.06
2023-04-19T07:37:32.793Z,52.52
2023-04-19T07:39:34.457Z,52.29
2023-04-19T07:41:36.419Z,51.76
2023-04-19T07:43:39.280Z,52.15
2023-04-19T07:45:41.517Z,51.52
2023-04-19T07:47:43.080Z,51.66
2023-04-19T07:49:44.733Z,52.34
2023-04-19T07:51:46.497Z,52.46
2023-04-19T07:53:49.427Z,52.08
2023-04-19T07:55:51.033Z,52.22
2023-04-19T07:57:52.645Z,52.32
2023-04-19T07:59:54.206Z,52.31
2023-04-19T08:01:55.911Z,52.13
2023-04-19T08:03:57.700Z,52.08
2023-04-19T08:06:00.821Z,51.91
2023-04-19T08:08:02.479Z,52.30
2023-04-19T08:10:07.264Z,52.01
2023-04-19T08:12:09.285Z,51.97
2023-04-19T08:14:22.154Z,52.02
2023-04-19T08:17:14.700Z,52.14
2023-04-19T08:18:53.912Z,52.79
2023-04-19T08:20:55.510Z,52.78
2023-04-19T08:22:59.071Z,52.98
2023-04-19T08:25:02.366Z,53.26
2023-04-19T08:27:05.387Z,53.45
2023-04-19T08:29:07.020Z,52.67
2023-04-19T08:31:09.001Z,52.71
2023-04-19T08:33:10.748Z,52.42
2023-04-19T08:35:13.334Z,53.12
2023-04-19T08:37:14.896Z,52.50
2023-04-19T08:39:29.139Z,54.79
2023-04-19T08:41:34.726Z,51.87
2023-04-19T08:43:39.920Z,52.16
2023-04-19T08:45:43.257Z,53.54
2023-04-19T08:47:58.957Z,52.21
2023-04-19T08:50:17.444Z,51.84
2023-04-19T08:52:28.056Z,51.16
2023-04-19T08:54:29.987Z,50.95
2023-04-19T08:56:35.783Z,52.31
2023-04-19T08:58:56.836Z,52.21
2023-04-19T09:01:00.836Z,51.79
2023-04-19T09:03:02.677Z,52.39
2023-04-19T09:05:05.485Z,52.95
2023-04-19T09:07:07.202Z,52.15
2023-04-19T09:11:21.582Z,53.16
2023-04-19T09:13:24.228Z,52.09
2023-04-19T09:15:36.417Z,51.64
2023-04-19T09:17:41.062Z,52.25
2023-04-19T09:19:46.520Z,50.65
2023-04-19T09:21:48.198Z,53.63
2023-04-19T09:23:49.776Z,50.61
2023-04-19T09:28:09.261Z,50.87
2023-04-19T09:30:20.766Z,50.71
2023-04-19T09:32:24.464Z,52.94
2023-04-19T09:34:26.266Z,50.37
2023-04-19T09:36:29.187Z,50.04
2023-04-19T09:38:30.944Z,49.72
2023-04-19T09:40:32.520Z,50.40
2023-04-19T09:43:05.472Z,49.85
2023-04-19T09:47:22.768Z,50.40
2023-04-19T09:49:37.534Z,51.22
2023-04-19T09:51:48.794Z,50.99
2023-04-19T09:53:50.575Z,49.44
2023-04-19T09:56:01.514Z,49.91
2023-04-19T09:58:04.078Z,50.78
2023-04-19T10:00:06.974Z,52.67
2023-04-19T10:02:12.109Z,53.71
2023-04-19T10:08:28.709Z,52.81
2023-04-19T10:10:42.118Z,48.88
2023-04-19T10:13:11.043Z,50.22
2023-04-19T10:15:13.389Z,50.28
2023-04-19T10:17:16.165Z,51.37
2023-04-19T10:19:19.039Z,51.73
2023-04-19T10:21:21.266Z,51.40
2023-04-19T10:23:24.861Z,49.14
2023-04-19T10:25:29.542Z,48.66
2023-04-19T10:27:34.810Z,52.15
2023-04-19T10:29:55.884Z,47.96
2023-04-19T10:31:58.566Z,46.96
2023-04-19T10:34:00.291Z,46.17
2023-04-19T10:36:02.381Z,50.19
2023-04-19T10:38:06.621Z,49.81
2023-04-19T10:40:10.388Z,49.42
2023-04-19T10:42:11.910Z,51.61
2023-04-19T10:44:13.897Z,47.29
2023-04-19T10:46:35.894Z,47.76
2023-04-19T10:48:49.673Z,46.97
2023-04-19T10:51:01.493Z,46.35
2023-04-19T10:53:36.271Z,47.60
2023-04-19T10:55:50.237Z,45.84
2023-04-19T10:58:01.618Z,47.99
2023-04-19T11:00:19.538Z,46.43
2023-04-19T11:02:28.487Z,45.53
2023-04-19T11:05:09.700Z,45.81
2023-04-19T11:07:11.281Z,45.10
2023-04-19T11:09:22.198Z,43.88
2023-04-19T11:11:26.062Z,44.54
2023-04-19T11:13:27.793Z,44.21
2023-04-19T11:15:31.891Z,44.54
2023-04-19T11:17:33.818Z,44.26
2023-04-19T11:19:35.538Z,44.60
2023-04-19T11:21:40.308Z,44.02
2023-04-19T11:23:41.854Z,44.39
2023-04-19T11:25:46.021Z,44.39
2023-04-19T11:27:51.417Z,44.09
2023-04-19T11:29:54.108Z,43.91
2023-04-19T11:31:55.724Z,43.43
2023-04-19T11:33:58.824Z,44.10
2023-04-19T11:36:00.410Z,43.98
2023-04-19T11:38:03.038Z,43.11
2023-04-19T11:40:06.902Z,44.10
2023-04-19T11:42:17.345Z,43.71
2023-04-19T11:44:20.513Z,43.86
2023-04-19T11:46:23.526Z,43.78
2023-04-19T11:48:25.060Z,43.32
2023-04-19T11:50:34.842Z,43.32
2023-04-19T11:52:36.394Z,44.10
2023-04-19T11:54:38.035Z,42.17
2023-04-19T11:57:01.302Z,41.84
2023-04-19T11:59:02.888Z,41.55
2023-04-19T12:01:08.552Z,44.53
2023-04-19T12:03:10.442Z,42.91
2023-04-19T12:05:14.457Z,41.54
2023-04-19T12:07:16.437Z,40.23
2023-04-19T12:09:22.841Z,39.99
2023-04-19T12:11:41.388Z,39.28
2023-04-19T12:13:42.994Z,38.07
2023-04-19T12:15:46.199Z,38.06
2023-04-19T12:17:59.775Z,35.75
2023-04-19T12:20:01.389Z,36.46
2023-04-19T12:22:11.114Z,34.27
2023-04-19T12:24:15.853Z,34.67
2023-04-19T12:26:17.395Z,34.41
2023-04-19T12:28:18.971Z,32.78
2023-04-19T12:30:20.530Z,32.37
2023-04-19T12:32:22.266Z,33.88
2023-04-19T12:34:25.479Z,30.71
2023-04-19T12:36:27.284Z,30.42
2023-04-19T12:38:28.861Z,29.16
2023-04-19T12:40:30.716Z,28.07
2023-04-19T12:42:32.305Z,28.39
2023-04-19T12:44:33.856Z,27.92
2023-04-19T12:46:35.926Z,28.46
2023-04-19T12:48:37.518Z,27.54
2023-04-19T12:50:40.448Z,26.82
2023-04-19T12:52:42.654Z,27.33
2023-04-19T12:54:44.235Z,26.84
2023-04-19T12:56:45.808Z,26.92
2023-04-19T12:58:47.412Z,28.46
2023-04-19T13:00:49.792Z,27.85
2023-04-19T13:02:51.520Z,27.89
2023-04-19T13:04:53.402Z,27.93
2023-04-19T13:06:56.545Z,31.50
2023-04-19T13:09:01.205Z,32.15
2023-04-19T13:11:03.382Z,30.00
2023-04-19T13:13:04.997Z,29.42
2023-04-19T13:15:08.022Z,30.42
2023-04-19T13:17:09.689Z,33.76
2023-04-19T13:19:11.394Z,33.53
2023-04-19T13:21:13.005Z,30.18
2023-04-19T13:23:15.950Z,30.91
2023-04-19T13:25:17.524Z,30.86
2023-04-19T13:27:19.090Z,31.30
2023-04-19T13:29:20.700Z,31.40
2023-04-19T13:31:22.317Z,31.80
2023-04-19T13:33:23.870Z,31.90
2023-04-19T13:35:25.562Z,32.87
2023-04-19T13:37:27.159Z,32.04
2023-04-19T13:39:30.149Z,30.25
2023-04-19T13:41:31.766Z,30.16
2023-04-19T13:43:33.290Z,29.07
2023-04-19T13:45:34.847Z,27.57
2023-04-19T13:47:36.454Z,27.13
2023-04-19T13:49:38.388Z,28.66
2023-04-19T13:51:49.700Z,28.13
2023-04-19T13:53:52.137Z,29.35
2023-04-19T13:55:55.816Z,29.53
2023-04-19T13:57:57.383Z,28.51
2023-04-19T13:59:58.957Z,29.04
2023-04-19T14:02:02.908Z,31.66
2023-04-19T14:04:05.110Z,28.58
2023-04-19T14:06:07.167Z,28.90
2023-04-19T14:08:08.809Z,28.94
2023-04-19T14:10:10.969Z,28.81
2023-04-19T14:12:13.991Z,28.47
2023-04-19T14:14:15.815Z,30.32
2023-04-19T14:16:17.489Z,29.70
2023-04-19T14:18:19.160Z,29.52
2023-04-19T14:20:20.833Z,28.82
2023-04-19T14:22:24.489Z,29.07
2023-04-19T14:24:26.087Z,29.35
2023-04-19T14:26:27.834Z,27.85
2023-04-19T14:28:30.833Z,28.17
2023-04-19T14:30:32.502Z,28.70
2023-04-19T14:32:34.259Z,30.31
2023-04-19T14:34:38.144Z,28.15
2023-04-19T14:36:40.350Z,26.78
2023-04-19T14:38:41.878Z,34.10
2023-04-19T14:40:43.542Z,30.38
2023-04-19T14:42:45.113Z,37.29
2023-04-19T14:44:49.695Z,27.84
2023-04-19T14:46:51.574Z,26.28
2023-04-19T14:48:53.146Z,27.10
2023-04-19T14:50:55.646Z,26.45
2023-04-19T14:52:57.232Z,26.57
2023-04-19T14:54:58.826Z,26.50
2023-04-19T14:57:00.531Z,26.58
2023-04-19T14:59:02.086Z,25.93
2023-04-19T15:01:12.284Z,26.80
2023-04-19T15:03:14.059Z,28.57
2023-04-19T15:05:15.864Z,27.26
2023-04-19T15:07:17.649Z,25.48
2023-04-19T15:09:19.227Z,26.22
2023-04-19T15:11:20.867Z,27.48
2023-04-19T15:13:22.644Z,25.91
2023-04-19T15:15:24.262Z,31.25
2023-04-19T15:17:27.308Z,27.01
2023-04-19T15:19:30.544Z,25.14
2023-04-19T15:21:32.080Z,25.73
2023-04-19T15:23:33.651Z,24.88
2023-04-19T15:25:35.291Z,25.56
2023-04-19T15:27:37.276Z,26.82
2023-04-19T15:29:38.823Z,24.72
2023-04-19T15:31:40.419Z,24.20
2023-04-19T15:33:43.765Z,24.39
2023-04-19T15:35:45.276Z,24.89
2023-04-19T15:37:47.398Z,24.35
2023-04-19T15:39:48.980Z,23.59
2023-04-19T15:41:50.814Z,23.57
2023-04-19T15:43:52.808Z,26.28
2023-04-19T15:45:54.508Z,23.70
2023-04-19T15:47:56.082Z,23.82
2023-04-19T15:50:00.008Z,25.95
2023-04-19T15:52:01.579Z,25.01
2023-04-19T15:54:03.200Z,24.56
2023-04-19T15:56:05.924Z,23.96
2023-04-19T15:58:07.505Z,23.09
2023-04-19T16:00:10.177Z,23.67
2023-04-19T16:02:11.865Z,24.65
2023-04-19T16:04:13.904Z,23.50
2023-04-19T16:06:17.114Z,23.15
2023-04-19T16:08:19.263Z,22.82
2023-04-19T16:10:20.810Z,23.41
2023-04-19T16:12:22.402Z,23.50
2023-04-19T16:14:24.171Z,24.08
2023-04-19T16:16:25.784Z,23.49
2023-04-19T16:18:27.424Z,23.62
2023-04-19T16:20:29.069Z,23.59
2023-04-19T16:22:32.070Z,23.53
2023-04-19T16:24:33.634Z,22.30
2023-04-19T16:26:35.217Z,22.69
2023-04-19T16:28:36.769Z,22.39
2023-04-19T16:30:38.325Z,22.13
2023-04-19T16:32:40.681Z,21.93
2023-04-19T16:34:42.641Z,21.82
2023-04-19T16:36:44.218Z,21.52
2023-04-19T16:38:47.252Z,22.01
2023-04-19T16:40:49.107Z,22.16
2023-04-19T16:42:50.779Z,22.45
2023-04-19T16:44:52.503Z,21.69
2023-04-19T16:46:54.074Z,21.95
2023-04-19T16:48:55.833Z,21.82
2023-04-19T16:50:57.456Z,22.24
2023-04-19T16:52:58.996Z,22.45
2023-04-19T16:55:02.042Z,21.96
2023-04-19T16:57:03.898Z,22.64
2023-04-19T16:59:05.451Z,22.63
2023-04-19T17:01:07.029Z,22.59
2023-04-19T17:03:08.749Z,22.95
2023-04-19T17:05:10.562Z,23.76
2023-04-19T17:07:12.437Z,23.15
2023-04-19T17:09:14.176Z,24.01
2023-04-19T17:11:17.175Z,23.29
2023-04-19T17:13:18.769Z,23.42
2023-04-19T17:15:20.391Z,23.30
2023-04-19T17:17:21.954Z,24.00
2023-04-19T17:19:23.496Z,23.41
2023-04-19T17:21:25.080Z,23.12
2023-04-19T17:23:26.673Z,23.48
2023-04-19T17:25:28.416Z,23.67
2023-04-19T17:27:31.391Z,24.26
2023-04-19T17:29:33.177Z,23.75
2023-04-19T17:31:34.831Z,24.01
2023-04-19T17:33:36.534Z,24.60
2023-04-19T17:35:38.100Z,23.90
2023-04-19T17:37:39.670Z,24.47
2023-04-19T17:39:41.276Z,24.27
2023-04-19T17:41:42.840Z,24.74
2023-04-19T17:43:46.587Z,24.62
2023-04-19T17:45:48.224Z,24.75
2023-04-19T17:47:49.835Z,25.52
2023-04-19T17:49:51.605Z,25.20
2023-04-19T17:51:54.889Z,25.44
2023-04-19T17:53:56.513Z,25.18
2023-04-19T17:55:58.134Z,25.76
2023-04-19T17:57:59.742Z,25.46
2023-04-19T18:00:03.209Z,25.65
2023-04-19T18:02:04.879Z,25.52
2023-04-19T18:04:06.721Z,25.38
2023-04-19T18:06:08.724Z,25.48
2023-04-19T18:08:10.314Z,25.87
2023-04-19T18:10:11.987Z,25.67
2023-04-19T18:12:13.589Z,26.15
2023-04-19T18:14:15.117Z,26.43
2023-04-19T18:16:18.040Z,26.93
2023-04-19T18:18:19.626Z,26.47
2023-04-19T18:20:21.430Z,26.44
2023-04-19T18:22:23.059Z,26.66
2023-04-19T18:24:24.749Z,27.00
2023-04-19T18:26:36.269Z,26.76
2023-04-19T18:28:38.910Z,27.08
2023-04-19T18:30:40.561Z,27.00
2023-04-19T18:32:43.482Z,26.96
2023-04-19T18:34:45.194Z,27.16
2023-04-19T18:36:46.774Z,27.61
2023-04-19T18:38:48.290Z,27.51
2023-04-19T18:40:50.323Z,28.01
2023-04-19T18:42:51.933Z,27.75
2023-04-19T18:44:54.600Z,27.44
2023-04-19T18:46:56.497Z,27.35
2023-04-19T18:48:59.454Z,27.51
2023-04-19T18:51:01.043Z,28.24
2023-04-19T18:53:02.592Z,27.58
2023-04-19T18:55:05.010Z,27.32
2023-04-19T18:57:22.778Z,28.29
2023-04-19T18:59:25.038Z,27.73
2023-04-19T19:01:26.621Z,27.13
2023-04-19T19:05:34.041Z,27.82
2023-04-19T19:07:37.079Z,27.70
2023-04-19T19:09:39.258Z,28.10
2023-04-19T19:11:55.229Z,28.30
2023-04-19T19:13:57.946Z,26.68
2023-04-19T19:15:59.611Z,27.35
2023-04-19T19:18:01.341Z,27.69
2023-04-19T19:20:03.380Z,27.97
2023-04-19T19:22:18.192Z,27.37
2023-04-19T19:24:27.239Z,27.54
2023-04-19T19:26:28.769Z,28.60
2023-04-19T19:28:30.450Z,28.99
2023-04-19T19:30:32.041Z,29.38
2023-04-19T19:32:33.838Z,29.38
2023-04-19T19:34:47.098Z,29.97
2023-04-19T19:36:55.899Z,29.76
2023-04-19T19:38:58.830Z,30.14
2023-04-19T19:41:41.739Z,30.03
2023-04-19T19:43:21.950Z,30.05
2023-04-19T19:45:27.184Z,30.51
2023-04-19T19:47:28.872Z,30.43
2023-04-19T19:49:42.078Z,30.25
2023-04-19T19:51:58.470Z,30.68
2023-04-19T19:54:02.584Z,30.46
2023-04-19T19:56:08.658Z,30.92
2023-04-19T19:58:45.892Z,31.61
2023-04-19T20:00:46.136Z,31.30
2023-04-19T20:04:54.273Z,31.43
2023-04-19T20:09:01.867Z,31.55
2023-04-19T20:11:03.532Z,31.48
2023-04-19T20:13:05.186Z,31.35
2023-04-19T20:15:07.721Z,31.31
2023-04-19T20:17:09.223Z,31.37
2023-04-19T20:19:10.732Z,31.58
2023-04-19T20:21:12.524Z,32.34
2023-04-19T20:23:15.172Z,32.03
2023-04-19T20:25:18.119Z,31.16
2023-04-19T20:27:19.717Z,31.19
2023-04-19T20:29:21.239Z,31.63
2023-04-19T20:31:24.096Z,31.76
2023-04-19T20:33:25.974Z,31.68
2023-04-19T20:35:27.899Z,30.89
2023-04-19T20:37:29.382Z,31.56
2023-04-19T20:39:30.966Z,32.08
2023-04-19T20:41:33.949Z,31.66
2023-04-19T20:43:35.468Z,31.05
2023-04-19T20:45:37.084Z,31.37
2023-04-19T20:47:38.827Z,31.40
2023-04-19T20:49:40.503Z,31.00
2023-04-19T20:51:42.105Z,31.37
2023-04-19T20:53:43.661Z,31.38
2023-04-19T20:55:45.177Z,31.15
2023-04-19T20:57:48.247Z,31.28
2023-04-19T20:59:50.353Z,31.95
2023-04-19T21:01:51.947Z,31.59
2023-04-19T21:03:53.802Z,32.01
2023-04-19T21:05:55.555Z,31.51
2023-04-19T21:07:57.135Z,31.89
2023-04-19T21:09:58.659Z,31.49
2023-04-19T21:12:00.251Z,31.50
2023-04-19T21:14:03.195Z,31.26
2023-04-19T21:16:05.313Z,31.31
2023-04-19T21:18:06.981Z,31.33
2023-04-19T21:20:09.602Z,31.27
2023-04-19T21:22:11.204Z,31.38
2023-04-19T21:24:12.757Z,31.40
2023-04-19T21:26:14.299Z,31.25
2023-04-19T21:28:15.919Z,31.51
2023-04-19T21:30:19.290Z,31.15
2023-04-19T21:32:21.614Z,31.21
2023-04-19T21:34:23.178Z,31.67
2023-04-19T21:36:24.703Z,32.00
2023-04-19T21:38:26.308Z,32.04
2023-04-19T21:40:27.932Z,32.17
2023-04-19T21:42:29.623Z,32.23
2023-04-19T21:44:31.185Z,32.41
2023-04-19T21:46:34.235Z,32.19
2023-04-19T21:48:35.805Z,32.32
2023-04-19T21:50:37.492Z,31.97
2023-04-19T21:52:39.098Z,32.50
2023-04-19T21:54:40.650Z,32.63
2023-04-19T21:56:42.144Z,32.30
2023-04-19T21:58:43.731Z,32.46
2023-04-19T22:00:45.631Z,32.69
2023-04-19T22:02:48.658Z,33.27
2023-04-19T22:04:50.280Z,32.66
2023-04-19T22:06:51.896Z,33.17
2023-04-19T22:08:53.428Z,32.76
2023-04-19T22:10:55.829Z,32.72
2023-04-19T22:12:58.873Z,33.14
2023-04-19T22:15:00.974Z,32.57
2023-04-19T22:17:02.929Z,32.74
2023-04-19T22:19:05.962Z,32.75
2023-04-19T22:21:07.580Z,32.79
2023-04-19T22:23:09.232Z,32.73
2023-04-19T22:25:10.853Z,32.83
2023-04-19T22:27:12.497Z,32.83
2023-04-19T22:29:14.069Z,32.66
2023-04-19T22:31:15.630Z,32.77
2023-04-19T22:33:17.122Z,32.84
2023-04-19T22:35:21.995Z,32.94
2023-04-19T22:37:24.601Z,32.97
2023-04-19T22:39:26.105Z,32.95
2023-04-19T22:41:27.683Z,33.66
2023-04-19T22:43:29.201Z,33.07
2023-04-19T22:45:30.774Z,33.11
2023-04-19T22:47:32.387Z,33.27
2023-04-19T22:49:36.665Z,33.01
2023-04-19T22:51:39.639Z,33.15
2023-04-19T22:53:41.213Z,33.31
2023-04-19T22:55:42.988Z,33.40
2023-04-19T22:57:44.612Z,33.69
2023-04-19T22:59:46.251Z,33.63
2023-04-19T23:01:47.898Z,34.11
2023-04-19T23:03:49.563Z,33.88
2023-04-19T23:05:51.110Z,34.17
2023-04-19T23:07:54.813Z,33.78
2023-04-19T23:09:56.434Z,33.91
2023-04-19T23:11:57.995Z,34.11
2023-04-19T23:13:59.511Z,34.47
2023-04-19T23:16:01.116Z,34.30
2023-04-19T23:18:02.803Z,34.71
2023-04-19T23:20:05.466Z,34.57
2023-04-19T23:22:07.068Z,34.63
2023-04-19T23:24:10.113Z,35.17
2023-04-19T23:26:11.695Z,35.25
2023-04-19T23:28:13.279Z,35.57
2023-04-19T23:30:17.696Z,35.96
2023-04-19T23:32:19.339Z,36.23
2023-04-19T23:34:20.906Z,36.53
2023-04-19T23:36:22.546Z,36.71
2023-04-19T23:38:24.179Z,36.75
2023-04-19T23:40:27.097Z,36.55
2023-04-19T23:42:28.685Z,36.84
2023-04-19T23:44:30.650Z,36.50
2023-04-19T23:46:32.293Z,36.33
2023-04-19T23:48:35.006Z,36.27
2023-04-19T23:50:36.573Z,36.30
2023-04-19T23:52:38.152Z,36.40
2023-04-19T23:54:39.743Z,36.24
2023-04-19T23:56:42.633Z,36.27
2023-04-19T23:58:44.134Z,36.13
